This is the latest recevied weather packets stored in our database for station/object VU3ZAG-13. If no packets are shown the sender has not sent any weather packets the latest 1 day(s).
| Time | Temp. | Humidity | Pressure | Rain* | Wind** | Luminosity | Snow |
|---|---|---|---|---|---|---|---|
| 1778022376 | 31.11° C | 48% | - | 0 mm | 1.34 m/s, 304° | - | - |
| 1778022067 | 31.11° C | 48% | - | 0 mm | 1.79 m/s, 283° | - | - |
| 1778021758 | 31.11° C | 48% | - | 0 mm | 1.79 m/s, 264° | - | - |
| 1778021450 | 31.11° C | 48% | - | 0 mm | 1.34 m/s, 267° | - | - |
| 1778021141 | 31.11° C | 48% | - | 0 mm | 1.34 m/s, 289° | - | - |
| 1778020832 | 31.11° C | 48% | - | 0 mm | 1.34 m/s, 277° | - | - |
| 1778020523 | 31.11° C | 48% | - | 0 mm | 0.89 m/s, 320° | - | - |
| 1778020216 | 31.11° C | 48% | - | 0 mm | 1.79 m/s, 264° | - | - |
| 1778019906 | 31.11° C | 48% | - | 0 mm | 1.34 m/s, 267° | - | - |
| 1778019597 | 31.11° C | 48% | - | 0 mm | 1.34 m/s, 269° | - | - |
| 1778019288 | 31.11° C | 48% | - | 0 mm | 0.89 m/s, 297° | - | - |
| 1778018980 | 31.11° C | 48% | - | 0 mm | 0.89 m/s, 293° | - | - |
| 1778018671 | 31.11° C | 48% | - | 0 mm | 0.89 m/s, 321° | - | - |
| 1778018363 | 31.11° C | 48% | - | 0 mm | 1.34 m/s, 330° | - | - |
| 1778018054 | 31.11° C | 48% | - | 0 mm | 1.34 m/s, 297° | - | - |
| 1778017746 | 31.11° C | 48% | - | 0 mm | 0.89 m/s, 315° | - | - |
| 1778017437 | 31.11° C | 48% | - | 0 mm | 1.34 m/s, 276° | - | - |
| 1778017128 | 31.11° C | 48% | - | 0 mm | 1.79 m/s, 293° | - | - |
| 1778016819 | 31.11° C | 48% | - | 0 mm | 1.34 m/s, 282° | - | - |
| 1778016510 | 31.11° C | 48% | - | 0 mm | 1.79 m/s, 277° | - | - |
| 1778016202 | 31.11° C | 48% | - | 0 mm | 1.34 m/s, 308° | - | - |
| 1778015893 | 31.11° C | 48% | - | 0 mm | 1.79 m/s, 270° | - | - |
| 1778015584 | 31.11° C | 48% | - | 0 mm | 1.79 m/s, 284° | - | - |
| 1778014349 | 31.11° C | 48% | - | 0 mm | 1.79 m/s, 288° | - | - |
| 1778014041 | 31.11° C | 49% | - | 0 mm | 1.79 m/s, 272° | - | - |
* Rain since midnight (hover to see other rain measurements)
** Current wind speed in m/s (hover to see current wind gust speed)